Terminal Aerodrome Forecast
Issued by NWS

Home | Current Version | Previous Version | Text Only | Print | Product List | Glossary Off
Versions: 1 2 3 4 5 6 7 8 9 10 11 12 13 14 15 16 17 18

448
FTUS43 KIWX 080245 AAA
TAFSBN
TAF AMD
KSBN 080245Z 0803/0824 26014KT P6SM SCT010 OVC020
     FM081000 26015G24KT 6SM -SHSN OVC020
     FM081600 27016G25KT 4SM -SHSN OVC015
     FM082200 27014KT 1SM -SHSN BR VV008=

USA.gov is the U.S. government's official web portal to all federal, state and local government web resources and services.